sensor_id;sensor_type;location;lat;lon;timestamp;P1;durP1;ratioP1;P2;durP2;ratioP2
68479;SDS011;55469;48.934;12.050;2022-08-01T00:00:39;2.15;;;2.00;;
68479;SDS011;55469;48.934;12.050;2022-08-01T00:03:05;2.15;;;1.88;;
68479;SDS011;55469;48.934;12.050;2022-08-01T00:05:31;2.25;;;2.05;;
68479;SDS011;55469;48.934;12.050;2022-08-01T00:07:57;1.90;;;1.80;;
68479;SDS011;55469;48.934;12.050;2022-08-01T00:10:23;1.90;;;1.80;;
68479;SDS011;55469;48.934;12.050;2022-08-01T00:12:49;2.40;;;1.88;;
68479;SDS011;55469;48.934;12.050;2022-08-01T00:15:15;1.98;;;1.77;;
68479;SDS011;55469;48.934;12.050;2022-08-01T00:17:42;1.90;;;1.80;;
68479;SDS011;55469;48.934;12.050;2022-08-01T00:20:10;2.85;;;1.90;;
68479;SDS011;55469;48.934;12.050;2022-08-01T00:22:38;2.05;;;1.85;;
68479;SDS011;55469;48.934;12.050;2022-08-01T00:25:04;2.88;;;2.00;;
68479;SDS011;55469;48.934;12.050;2022-08-01T00:27:31;1.90;;;1.80;;
68479;SDS011;55469;48.934;12.050;2022-08-01T00:29:57;2.28;;;1.83;;
68479;SDS011;55469;48.934;12.050;2022-08-01T00:32:23;2.30;;;2.10;;
68479;SDS011;55469;48.934;12.050;2022-08-01T00:34:49;2.25;;;2.05;;
68479;SDS011;55469;48.934;12.050;2022-08-01T00:37:15;2.72;;;2.00;;
68479;SDS011;55469;48.934;12.050;2022-08-01T00:39:41;2.20;;;2.00;;
68479;SDS011;55469;48.934;12.050;2022-08-01T00:42:08;2.00;;;1.90;;
68479;SDS011;55469;48.934;12.050;2022-08-01T00:44:36;2.50;;;1.80;;
68479;SDS011;55469;48.934;12.050;2022-08-01T00:47:02;1.95;;;1.85;;
68479;SDS011;55469;48.934;12.050;2022-08-01T00:49:28;1.95;;;1.85;;
68479;SDS011;55469;48.934;12.050;2022-08-01T00:51:55;1.90;;;1.80;;
68479;SDS011;55469;48.934;12.050;2022-08-01T00:54:22;2.30;;;2.10;;
68479;SDS011;55469;48.934;12.050;2022-08-01T00:56:50;2.10;;;1.90;;
68479;SDS011;55469;48.934;12.050;2022-08-01T00:59:20;2.20;;;1.98;;
68479;SDS011;55469;48.934;12.050;2022-08-01T01:01:47;2.00;;;1.90;;
68479;SDS011;55469;48.934;12.050;2022-08-01T01:04:14;2.30;;;2.10;;
68479;SDS011;55469;48.934;12.050;2022-08-01T01:09:17;2.42;;;2.05;;
68479;SDS011;55469;48.934;12.050;2022-08-01T01:12:02;2.83;;;2.10;;
68479;SDS011;55469;48.934;12.050;2022-08-01T01:14:33;3.00;;;2.10;;
68479;SDS011;55469;48.934;12.050;2022-08-01T01:17:21;2.08;;;1.88;;
68479;SDS011;55469;48.934;12.050;2022-08-01T01:19:54;2.28;;;2.08;;
68479;SDS011;55469;48.934;12.050;2022-08-01T01:22:29;2.67;;;2.13;;
68479;SDS011;55469;48.934;12.050;2022-08-01T01:28:12;2.28;;;2.08;;
68479;SDS011;55469;48.934;12.050;2022-08-01T01:30:49;2.25;;;2.00;;
68479;SDS011;55469;48.934;12.050;2022-08-01T01:33:16;2.40;;;2.20;;
68479;SDS011;55469;48.934;12.050;2022-08-01T01:35:46;2.33;;;2.10;;
68479;SDS011;55469;48.934;12.050;2022-08-01T01:38:18;3.58;;;2.30;;
68479;SDS011;55469;48.934;12.050;2022-08-01T01:40:48;2.50;;;2.25;;
68479;SDS011;55469;48.934;12.050;2022-08-01T01:43:17;3.08;;;2.30;;
68479;SDS011;55469;48.934;12.050;2022-08-01T01:45:45;2.60;;;2.13;;
68479;SDS011;55469;48.934;12.050;2022-08-01T01:48:12;2.50;;;2.08;;
68479;SDS011;55469;48.934;12.050;2022-08-01T01:50:42;2.30;;;2.10;;
68479;SDS011;55469;48.934;12.050;2022-08-01T01:53:12;3.17;;;2.17;;
68479;SDS011;55469;48.934;12.050;2022-08-01T01:55:41;2.40;;;2.17;;
68479;SDS011;55469;48.934;12.050;2022-08-01T01:58:12;2.75;;;2.20;;
68479;SDS011;55469;48.934;12.050;2022-08-01T02:00:39;2.75;;;2.30;;
68479;SDS011;55469;48.934;12.050;2022-08-01T02:03:10;2.90;;;2.20;;
68479;SDS011;55469;48.934;12.050;2022-08-01T02:05:37;2.63;;;2.25;;
68479;SDS011;55469;48.934;12.050;2022-08-01T02:08:04;2.72;;;2.40;;
68479;SDS011;55469;48.934;12.050;2022-08-01T02:10:32;2.80;;;2.20;;
68479;SDS011;55469;48.934;12.050;2022-08-01T02:12:59;2.90;;;2.40;;
68479;SDS011;55469;48.934;12.050;2022-08-01T02:15:31;2.42;;;2.22;;
68479;SDS011;55469;48.934;12.050;2022-08-01T02:18:03;2.90;;;2.50;;
68479;SDS011;55469;48.934;12.050;2022-08-01T02:20:31;3.33;;;2.55;;
68479;SDS011;55469;48.934;12.050;2022-08-01T02:23:06;2.28;;;2.08;;
68479;SDS011;55469;48.934;12.050;2022-08-01T02:25:48;2.47;;;2.13;;
68479;SDS011;55469;48.934;12.050;2022-08-01T02:28:24;3.45;;;2.40;;
68479;SDS011;55469;48.934;12.050;2022-08-01T02:30:56;3.15;;;2.45;;
68479;SDS011;55469;48.934;12.050;2022-08-01T02:33:28;2.95;;;2.28;;
68479;SDS011;55469;48.934;12.050;2022-08-01T02:36:03;5.25;;;2.22;;
68479;SDS011;55469;48.934;12.050;2022-08-01T02:38:31;3.35;;;2.65;;
68479;SDS011;55469;48.934;12.050;2022-08-01T02:41:04;2.75;;;2.40;;
68479;SDS011;55469;48.934;12.050;2022-08-01T02:43:38;2.78;;;2.20;;
68479;SDS011;55469;48.934;12.050;2022-08-01T02:46:10;2.65;;;2.20;;
68479;SDS011;55469;48.934;12.050;2022-08-01T02:48:41;3.15;;;2.13;;
68479;SDS011;55469;48.934;12.050;2022-08-01T02:51:08;2.50;;;2.25;;
68479;SDS011;55469;48.934;12.050;2022-08-01T02:53:36;2.97;;;2.05;;
68479;SDS011;55469;48.934;12.050;2022-08-01T02:56:05;2.38;;;2.08;;
68479;SDS011;55469;48.934;12.050;2022-08-01T02:58:33;2.20;;;2.00;;
68479;SDS011;55469;48.934;12.050;2022-08-01T03:01:02;2.47;;;2.28;;
68479;SDS011;55469;48.934;12.050;2022-08-01T03:03:30;3.15;;;2.25;;
68479;SDS011;55469;48.934;12.050;2022-08-01T03:05:57;2.35;;;2.15;;
68479;SDS011;55469;48.934;12.050;2022-08-01T03:08:24;4.43;;;2.20;;
68479;SDS011;55469;48.934;12.050;2022-08-01T03:10:50;2.33;;;2.13;;
68479;SDS011;55469;48.934;12.050;2022-08-01T03:13:19;2.70;;;2.25;;
68479;SDS011;55469;48.934;12.050;2022-08-01T03:15:46;3.47;;;2.08;;
68479;SDS011;55469;48.934;12.050;2022-08-01T03:18:14;3.72;;;2.20;;
68479;SDS011;55469;48.934;12.050;2022-08-01T03:20:41;2.33;;;2.13;;
68479;SDS011;55469;48.934;12.050;2022-08-01T03:23:08;2.65;;;2.30;;
68479;SDS011;55469;48.934;12.050;2022-08-01T03:25:38;2.30;;;2.10;;
68479;SDS011;55469;48.934;12.050;2022-08-01T03:28:06;3.35;;;2.05;;
68479;SDS011;55469;48.934;12.050;2022-08-01T03:30:36;2.22;;;2.03;;
68479;SDS011;55469;48.934;12.050;2022-08-01T03:33:03;2.25;;;2.15;;
68479;SDS011;55469;48.934;12.050;2022-08-01T03:35:52;2.22;;;2.03;;
68479;SDS011;55469;48.934;12.050;2022-08-01T03:38:19;3.25;;;2.30;;
68479;SDS011;55469;48.934;12.050;2022-08-01T03:43:58;2.63;;;2.30;;
68479;SDS011;55469;48.934;12.050;2022-08-01T03:46:45;3.78;;;2.10;;
68479;SDS011;55469;48.934;12.050;2022-08-01T03:49:17;2.78;;;2.00;;
68479;SDS011;55469;48.934;12.050;2022-08-01T03:51:47;2.63;;;2.30;;
68479;SDS011;55469;48.934;12.050;2022-08-01T03:54:15;2.58;;;2.20;;
68479;SDS011;55469;48.934;12.050;2022-08-01T03:56:46;3.25;;;2.42;;
68479;SDS011;55469;48.934;12.050;2022-08-01T03:59:14;1.85;;;1.73;;
68479;SDS011;55469;48.934;12.050;2022-08-01T04:01:41;2.20;;;2.00;;
68479;SDS011;55469;48.934;12.050;2022-08-01T04:04:10;2.40;;;1.98;;
68479;SDS011;55469;48.934;12.050;2022-08-01T04:06:37;2.30;;;2.10;;
68479;SDS011;55469;48.934;12.050;2022-08-01T04:09:04;2.70;;;2.20;;
68479;SDS011;55469;48.934;12.050;2022-08-01T04:11:33;2.67;;;2.30;;
68479;SDS011;55469;48.934;12.050;2022-08-01T04:13:59;2.17;;;1.98;;
68479;SDS011;55469;48.934;12.050;2022-08-01T04:16:25;3.00;;;2.15;;
68479;SDS011;55469;48.934;12.050;2022-08-01T04:18:51;2.85;;;2.20;;
68479;SDS011;55469;48.934;12.050;2022-08-01T04:21:20;3.30;;;2.03;;
68479;SDS011;55469;48.934;12.050;2022-08-01T04:23:52;2.25;;;2.05;;
68479;SDS011;55469;48.934;12.050;2022-08-01T04:26:23;2.20;;;2.00;;
68479;SDS011;55469;48.934;12.050;2022-08-01T04:28:51;2.08;;;1.88;;
68479;SDS011;55469;48.934;12.050;2022-08-01T04:31:19;2.30;;;2.10;;
68479;SDS011;55469;48.934;12.050;2022-08-01T04:33:49;2.35;;;2.15;;
68479;SDS011;55469;48.934;12.050;2022-08-01T04:36:19;2.30;;;2.10;;
68479;SDS011;55469;48.934;12.050;2022-08-01T04:38:46;2.30;;;2.10;;
68479;SDS011;55469;48.934;12.050;2022-08-01T04:41:17;2.35;;;2.15;;
68479;SDS011;55469;48.934;12.050;2022-08-01T04:43:45;2.20;;;2.00;;
68479;SDS011;55469;48.934;12.050;2022-08-01T04:46:11;3.70;;;2.05;;
68479;SDS011;55469;48.934;12.050;2022-08-01T04:48:39;2.47;;;2.15;;
68479;SDS011;55469;48.934;12.050;2022-08-01T04:51:13;3.60;;;2.00;;
68479;SDS011;55469;48.934;12.050;2022-08-01T04:56:06;2.50;;;2.20;;
68479;SDS011;55469;48.934;12.050;2022-08-01T04:58:32;2.03;;;1.92;;
68479;SDS011;55469;48.934;12.050;2022-08-01T05:00:58;2.80;;;1.90;;
68479;SDS011;55469;48.934;12.050;2022-08-01T05:03:23;1.98;;;1.80;;
68479;SDS011;55469;48.934;12.050;2022-08-01T05:05:49;2.55;;;1.98;;
68479;SDS011;55469;48.934;12.050;2022-08-01T05:08:15;2.45;;;1.90;;
68479;SDS011;55469;48.934;12.050;2022-08-01T05:10:41;2.15;;;2.05;;
68479;SDS011;55469;48.934;12.050;2022-08-01T05:13:07;2.17;;;1.98;;
68479;SDS011;55469;48.934;12.050;2022-08-01T05:15:36;2.40;;;2.20;;
68479;SDS011;55469;48.934;12.050;2022-08-01T05:18:02;2.40;;;2.20;;
68479;SDS011;55469;48.934;12.050;2022-08-01T05:20:28;2.20;;;2.10;;
68479;SDS011;55469;48.934;12.050;2022-08-01T05:22:54;2.42;;;1.98;;
68479;SDS011;55469;48.934;12.050;2022-08-01T05:25:20;2.30;;;2.10;;
68479;SDS011;55469;48.934;12.050;2022-08-01T05:27:46;1.95;;;1.85;;
68479;SDS011;55469;48.934;12.050;2022-08-01T05:30:12;2.92;;;2.00;;
68479;SDS011;55469;48.934;12.050;2022-08-01T05:32:38;2.35;;;1.90;;
68479;SDS011;55469;48.934;12.050;2022-08-01T05:35:04;3.03;;;2.13;;
68479;SDS011;55469;48.934;12.050;2022-08-01T05:37:31;2.70;;;2.10;;
68479;SDS011;55469;48.934;12.050;2022-08-01T05:39:56;3.70;;;2.28;;
68479;SDS011;55469;48.934;12.050;2022-08-01T05:42:22;3.13;;;2.10;;
68479;SDS011;55469;48.934;12.050;2022-08-01T05:44:48;1.80;;;1.70;;
68479;SDS011;55469;48.934;12.050;2022-08-01T05:47:15;2.30;;;2.10;;
68479;SDS011;55469;48.934;12.050;2022-08-01T05:49:41;3.05;;;2.25;;
68479;SDS011;55469;48.934;12.050;2022-08-01T05:52:07;2.20;;;2.00;;
68479;SDS011;55469;48.934;12.050;2022-08-01T05:54:33;3.42;;;2.22;;
68479;SDS011;55469;48.934;12.050;2022-08-01T05:56:58;3.55;;;2.10;;
68479;SDS011;55469;48.934;12.050;2022-08-01T05:59:27;3.50;;;2.35;;
68479;SDS011;55469;48.934;12.050;2022-08-01T06:01:53;2.42;;;2.20;;
68479;SDS011;55469;48.934;12.050;2022-08-01T06:04:19;2.45;;;1.73;;
68479;SDS011;55469;48.934;12.050;2022-08-01T06:06:45;2.67;;;2.00;;
68479;SDS011;55469;48.934;12.050;2022-08-01T06:09:10;2.58;;;2.20;;
68479;SDS011;55469;48.934;12.050;2022-08-01T06:11:36;2.10;;;1.90;;
68479;SDS011;55469;48.934;12.050;2022-08-01T06:14:02;2.42;;;2.10;;
68479;SDS011;55469;48.934;12.050;2022-08-01T06:31:21;2.95;;;2.00;;
68479;SDS011;55469;48.934;12.050;2022-08-01T06:33:47;1.90;;;1.80;;
68479;SDS011;55469;48.934;12.050;2022-08-01T06:36:13;2.83;;;1.80;;
68479;SDS011;55469;48.934;12.050;2022-08-01T06:38:39;1.92;;;1.80;;
68479;SDS011;55469;48.934;12.050;2022-08-01T06:41:04;1.98;;;1.70;;
68479;SDS011;55469;48.934;12.050;2022-08-01T06:43:30;2.00;;;1.80;;
68479;SDS011;55469;48.934;12.050;2022-08-01T06:45:56;2.00;;;1.80;;
68479;SDS011;55469;48.934;12.050;2022-08-01T06:48:21;1.85;;;1.75;;
68479;SDS011;55469;48.934;12.050;2022-08-01T06:50:47;3.03;;;1.83;;
68479;SDS011;55469;48.934;12.050;2022-08-01T06:53:13;3.60;;;1.67;;
68479;SDS011;55469;48.934;12.050;2022-08-01T06:55:39;1.88;;;1.70;;
68479;SDS011;55469;48.934;12.050;2022-08-01T06:58:05;1.60;;;1.50;;
68479;SDS011;55469;48.934;12.050;2022-08-01T07:00:30;2.67;;;1.50;;
68479;SDS011;55469;48.934;12.050;2022-08-01T07:02:57;1.92;;;1.60;;
68479;SDS011;55469;48.934;12.050;2022-08-01T07:05:27;1.40;;;1.30;;
68479;SDS011;55469;48.934;12.050;2022-08-01T07:07:55;2.45;;;1.50;;
68479;SDS011;55469;48.934;12.050;2022-08-01T07:10:21;1.40;;;1.30;;
68479;SDS011;55469;48.934;12.050;2022-08-01T07:12:48;1.98;;;1.52;;
68479;SDS011;55469;48.934;12.050;2022-08-01T07:15:14;2.80;;;1.50;;
68479;SDS011;55469;48.934;12.050;2022-08-01T07:17:40;2.65;;;1.30;;
68479;SDS011;55469;48.934;12.050;2022-08-01T07:20:08;1.98;;;1.10;;
68479;SDS011;55469;48.934;12.050;2022-08-01T07:22:37;1.92;;;1.60;;
68479;SDS011;55469;48.934;12.050;2022-08-01T07:25:06;2.20;;;1.40;;
68479;SDS011;55469;48.934;12.050;2022-08-01T07:27:33;1.83;;;1.55;;
68479;SDS011;55469;48.934;12.050;2022-08-01T07:33:41;1.83;;;1.50;;
68479;SDS011;55469;48.934;12.050;2022-08-01T07:50:51;1.52;;;1.42;;
68479;SDS011;55469;48.934;12.050;2022-08-01T13:49:29;1.35;;;1.10;;
68479;SDS011;55469;48.934;12.050;2022-08-01T15:18:28;0.70;;;0.57;;
68479;SDS011;55469;48.934;12.050;2022-08-01T15:20:54;0.70;;;0.70;;
68479;SDS011;55469;48.934;12.050;2022-08-01T15:23:22;0.60;;;0.60;;
68479;SDS011;55469;48.934;12.050;2022-08-01T15:25:48;0.82;;;0.75;;
68479;SDS011;55469;48.934;12.050;2022-08-01T15:28:14;0.80;;;0.60;;
68479;SDS011;55469;48.934;12.050;2022-08-01T15:30:40;1.75;;;0.77;;
68479;SDS011;55469;48.934;12.050;2022-08-01T15:33:09;0.60;;;0.60;;
68479;SDS011;55469;48.934;12.050;2022-08-01T15:35:34;0.80;;;0.60;;
68479;SDS011;55469;48.934;12.050;2022-08-01T15:38:00;0.60;;;0.60;;
68479;SDS011;55469;48.934;12.050;2022-08-01T15:40:26;0.93;;;0.55;;
68479;SDS011;55469;48.934;12.050;2022-08-01T15:42:53;0.70;;;0.60;;
68479;SDS011;55469;48.934;12.050;2022-08-01T15:45:19;0.57;;;0.57;;
68479;SDS011;55469;48.934;12.050;2022-08-01T15:47:46;0.80;;;0.60;;
68479;SDS011;55469;48.934;12.050;2022-08-01T15:50:12;0.60;;;0.60;;
68479;SDS011;55469;48.934;12.050;2022-08-01T15:52:37;1.10;;;0.55;;
68479;SDS011;55469;48.934;12.050;2022-08-01T15:55:03;0.80;;;0.80;;
68479;SDS011;55469;48.934;12.050;2022-08-01T15:57:30;0.50;;;0.50;;
68479;SDS011;55469;48.934;12.050;2022-08-01T15:59:55;0.60;;;0.52;;
68479;SDS011;55469;48.934;12.050;2022-08-01T16:02:21;1.48;;;0.60;;
68479;SDS011;55469;48.934;12.050;2022-08-01T16:04:49;0.82;;;0.60;;
68479;SDS011;55469;48.934;12.050;2022-08-01T16:07:15;1.17;;;0.70;;
68479;SDS011;55469;48.934;12.050;2022-08-01T16:09:41;0.65;;;0.65;;
68479;SDS011;55469;48.934;12.050;2022-08-01T16:12:07;1.20;;;0.50;;
68479;SDS011;55469;48.934;12.050;2022-08-01T16:14:33;1.38;;;0.80;;
68479;SDS011;55469;48.934;12.050;2022-08-01T16:16:59;0.80;;;0.80;;
68479;SDS011;55469;48.934;12.050;2022-08-01T16:19:25;0.70;;;0.70;;
68479;SDS011;55469;48.934;12.050;2022-08-01T16:21:51;1.40;;;0.93;;
68479;SDS011;55469;48.934;12.050;2022-08-01T16:24:16;1.63;;;0.82;;
68479;SDS011;55469;48.934;12.050;2022-08-01T16:26:42;1.08;;;0.93;;
68479;SDS011;55469;48.934;12.050;2022-08-01T16:29:08;1.50;;;0.93;;
68479;SDS011;55469;48.934;12.050;2022-08-01T16:31:34;0.80;;;0.80;;
68479;SDS011;55469;48.934;12.050;2022-08-01T16:34:00;1.35;;;0.73;;
68479;SDS011;55469;48.934;12.050;2022-08-01T16:36:26;1.00;;;0.85;;
68479;SDS011;55469;48.934;12.050;2022-08-01T16:38:51;1.15;;;0.85;;
68479;SDS011;55469;48.934;12.050;2022-08-01T16:41:19;1.05;;;0.82;;
68479;SDS011;55469;48.934;12.050;2022-08-01T16:43:44;1.30;;;0.93;;
68479;SDS011;55469;48.934;12.050;2022-08-01T16:46:10;0.93;;;0.80;;
68479;SDS011;55469;48.934;12.050;2022-08-01T16:48:36;0.80;;;0.80;;
68479;SDS011;55469;48.934;12.050;2022-08-01T16:51:02;1.20;;;0.80;;
68479;SDS011;55469;48.934;12.050;2022-08-01T16:53:28;0.80;;;0.80;;
68479;SDS011;55469;48.934;12.050;2022-08-01T16:55:53;0.70;;;0.70;;
68479;SDS011;55469;48.934;12.050;2022-08-01T16:58:20;1.23;;;1.00;;
68479;SDS011;55469;48.934;12.050;2022-08-01T17:00:48;0.80;;;0.80;;
68479;SDS011;55469;48.934;12.050;2022-08-01T17:03:16;1.85;;;0.80;;
68479;SDS011;55469;48.934;12.050;2022-08-01T17:05:43;1.67;;;0.90;;
68479;SDS011;55469;48.934;12.050;2022-08-01T17:08:09;1.05;;;0.90;;
68479;SDS011;55469;48.934;12.050;2022-08-01T17:10:36;1.20;;;0.90;;
68479;SDS011;55469;48.934;12.050;2022-08-01T17:13:03;2.50;;;1.08;;
68479;SDS011;55469;48.934;12.050;2022-08-01T17:15:30;1.27;;;1.00;;
68479;SDS011;55469;48.934;12.050;2022-08-01T17:17:58;3.90;;;1.10;;
68479;SDS011;55469;48.934;12.050;2022-08-01T17:20:26;1.00;;;1.00;;
68479;SDS011;55469;48.934;12.050;2022-08-01T17:22:52;1.40;;;1.30;;
68479;SDS011;55469;48.934;12.050;2022-08-01T17:25:18;2.25;;;1.08;;
68479;SDS011;55469;48.934;12.050;2022-08-01T17:27:45;1.38;;;1.20;;
68479;SDS011;55469;48.934;12.050;2022-08-01T17:30:15;1.85;;;1.17;;
68479;SDS011;55469;48.934;12.050;2022-08-01T17:32:42;1.92;;;1.30;;
68479;SDS011;55469;48.934;12.050;2022-08-01T17:35:09;1.77;;;1.17;;
68479;SDS011;55469;48.934;12.050;2022-08-01T17:37:36;1.73;;;1.50;;
68479;SDS011;55469;48.934;12.050;2022-08-01T17:40:04;2.78;;;1.30;;
68479;SDS011;55469;48.934;12.050;2022-08-01T17:42:31;1.40;;;1.30;;
68479;SDS011;55469;48.934;12.050;2022-08-01T17:44:56;3.58;;;1.48;;
68479;SDS011;55469;48.934;12.050;2022-08-01T17:47:23;1.58;;;1.25;;
68479;SDS011;55469;48.934;12.050;2022-08-01T17:49:49;2.03;;;1.35;;
68479;SDS011;55469;48.934;12.050;2022-08-01T17:52:15;2.72;;;1.50;;
68479;SDS011;55469;48.934;12.050;2022-08-01T17:54:41;1.63;;;1.30;;
68479;SDS011;55469;48.934;12.050;2022-08-01T17:57:06;1.75;;;1.25;;
68479;SDS011;55469;48.934;12.050;2022-08-01T17:59:34;1.60;;;1.25;;
68479;SDS011;55469;48.934;12.050;2022-08-01T18:02:00;2.95;;;1.30;;
68479;SDS011;55469;48.934;12.050;2022-08-01T18:04:25;2.53;;;1.30;;
68479;SDS011;55469;48.934;12.050;2022-08-01T18:06:51;1.40;;;1.30;;
68479;SDS011;55469;48.934;12.050;2022-08-01T18:09:17;2.25;;;1.50;;
68479;SDS011;55469;48.934;12.050;2022-08-01T18:11:43;2.33;;;1.50;;
68479;SDS011;55469;48.934;12.050;2022-08-01T18:14:09;2.25;;;1.10;;
68479;SDS011;55469;48.934;12.050;2022-08-01T18:16:35;1.83;;;1.15;;
68479;SDS011;55469;48.934;12.050;2022-08-01T18:19:01;2.17;;;1.30;;
68479;SDS011;55469;48.934;12.050;2022-08-01T18:21:28;1.52;;;1.40;;
68479;SDS011;55469;48.934;12.050;2022-08-01T18:23:56;1.85;;;1.20;;
68479;SDS011;55469;48.934;12.050;2022-08-01T18:26:21;2.35;;;1.20;;
68479;SDS011;55469;48.934;12.050;2022-08-01T18:28:47;1.50;;;1.40;;
68479;SDS011;55469;48.934;12.050;2022-08-01T18:31:13;1.10;;;1.00;;
68479;SDS011;55469;48.934;12.050;2022-08-01T18:33:44;1.40;;;1.30;;
68479;SDS011;55469;48.934;12.050;2022-08-01T18:36:10;2.08;;;1.50;;
68479;SDS011;55469;48.934;12.050;2022-08-01T18:38:36;1.48;;;1.27;;
68479;SDS011;55469;48.934;12.050;2022-08-01T18:41:02;2.40;;;1.50;;
68479;SDS011;55469;48.934;12.050;2022-08-01T18:43:29;1.40;;;1.30;;
68479;SDS011;55469;48.934;12.050;2022-08-01T18:45:55;1.00;;;1.00;;
68479;SDS011;55469;48.934;12.050;2022-08-01T18:48:21;1.77;;;1.30;;
68479;SDS011;55469;48.934;12.050;2022-08-01T18:50:47;4.65;;;1.30;;
68479;SDS011;55469;48.934;12.050;2022-08-01T18:53:16;1.73;;;1.30;;
68479;SDS011;55469;48.934;12.050;2022-08-01T18:55:42;1.40;;;1.20;;
68479;SDS011;55469;48.934;12.050;2022-08-01T18:58:08;1.35;;;1.20;;
68479;SDS011;55469;48.934;12.050;2022-08-01T19:00:34;3.45;;;1.35;;
68479;SDS011;55469;48.934;12.050;2022-08-01T19:03:00;2.53;;;1.35;;
68479;SDS011;55469;48.934;12.050;2022-08-01T19:05:25;1.70;;;1.33;;
68479;SDS011;55469;48.934;12.050;2022-08-01T19:07:51;1.20;;;1.10;;
68479;SDS011;55469;48.934;12.050;2022-08-01T19:10:17;1.40;;;1.30;;
68479;SDS011;55469;48.934;12.050;2022-08-01T19:12:43;1.30;;;1.20;;
68479;SDS011;55469;48.934;12.050;2022-08-01T19:15:08;2.17;;;1.17;;
68479;SDS011;55469;48.934;12.050;2022-08-01T19:17:34;2.88;;;1.40;;
68479;SDS011;55469;48.934;12.050;2022-08-01T19:20:00;4.22;;;1.40;;
68479;SDS011;55469;48.934;12.050;2022-08-01T19:22:26;1.40;;;1.23;;
68479;SDS011;55469;48.934;12.050;2022-08-01T19:24:52;1.88;;;1.10;;
68479;SDS011;55469;48.934;12.050;2022-08-01T19:27:17;1.70;;;1.23;;
68479;SDS011;55469;48.934;12.050;2022-08-01T19:29:50;1.40;;;1.30;;
68479;SDS011;55469;48.934;12.050;2022-08-01T19:32:19;1.30;;;1.20;;
68479;SDS011;55469;48.934;12.050;2022-08-01T19:34:52;2.08;;;1.40;;
68479;SDS011;55469;48.934;12.050;2022-08-01T19:37:29;1.70;;;1.30;;
68479;SDS011;55469;48.934;12.050;2022-08-01T19:39:55;2.15;;;1.30;;
68479;SDS011;55469;48.934;12.050;2022-08-01T19:42:26;1.90;;;1.38;;
68479;SDS011;55469;48.934;12.050;2022-08-01T19:44:53;2.05;;;1.20;;
68479;SDS011;55469;48.934;12.050;2022-08-01T19:47:19;3.25;;;1.33;;
68479;SDS011;55469;48.934;12.050;2022-08-01T19:49:45;1.38;;;1.27;;
68479;SDS011;55469;48.934;12.050;2022-08-01T19:52:12;1.58;;;1.30;;
68479;SDS011;55469;48.934;12.050;2022-08-01T19:54:42;1.40;;;1.30;;
68479;SDS011;55469;48.934;12.050;2022-08-01T19:57:10;1.40;;;1.17;;
68479;SDS011;55469;48.934;12.050;2022-08-01T19:59:39;1.83;;;1.20;;
68479;SDS011;55469;48.934;12.050;2022-08-01T20:02:06;2.30;;;1.30;;
68479;SDS011;55469;48.934;12.050;2022-08-01T20:04:32;1.42;;;1.33;;
68479;SDS011;55469;48.934;12.050;2022-08-01T20:06:59;2.35;;;1.23;;
68479;SDS011;55469;48.934;12.050;2022-08-01T20:09:26;1.83;;;1.30;;
68479;SDS011;55469;48.934;12.050;2022-08-01T20:11:53;1.65;;;1.30;;
68479;SDS011;55469;48.934;12.050;2022-08-01T20:14:20;2.58;;;1.35;;
68479;SDS011;55469;48.934;12.050;2022-08-01T20:16:48;2.35;;;1.20;;
68479;SDS011;55469;48.934;12.050;2022-08-01T20:19:16;1.50;;;1.15;;
68479;SDS011;55469;48.934;12.050;2022-08-01T20:21:45;1.45;;;1.30;;
68479;SDS011;55469;48.934;12.050;2022-08-01T20:24:16;2.38;;;1.58;;
68479;SDS011;55469;48.934;12.050;2022-08-01T20:26:46;2.13;;;1.33;;
68479;SDS011;55469;48.934;12.050;2022-08-01T20:29:13;1.45;;;1.20;;
68479;SDS011;55469;48.934;12.050;2022-08-01T20:31:45;3.08;;;1.50;;
68479;SDS011;55469;48.934;12.050;2022-08-01T20:34:15;1.98;;;1.35;;
68479;SDS011;55469;48.934;12.050;2022-08-01T20:36:45;3.15;;;1.35;;
68479;SDS011;55469;48.934;12.050;2022-08-01T20:39:12;1.38;;;1.27;;
68479;SDS011;55469;48.934;12.050;2022-08-01T20:41:38;1.67;;;1.20;;
68479;SDS011;55469;48.934;12.050;2022-08-01T20:44:06;2.47;;;1.30;;
68479;SDS011;55469;48.934;12.050;2022-08-01T20:46:34;1.50;;;1.40;;
68479;SDS011;55469;48.934;12.050;2022-08-01T20:49:02;1.40;;;1.30;;
68479;SDS011;55469;48.934;12.050;2022-08-01T20:51:28;3.08;;;1.45;;
68479;SDS011;55469;48.934;12.050;2022-08-01T20:53:56;2.05;;;1.30;;
68479;SDS011;55469;48.934;12.050;2022-08-01T20:56:29;1.58;;;1.17;;
68479;SDS011;55469;48.934;12.050;2022-08-01T20:59:04;2.40;;;1.50;;
68479;SDS011;55469;48.934;12.050;2022-08-01T21:04:20;1.70;;;1.20;;
68479;SDS011;55469;48.934;12.050;2022-08-01T21:10:05;1.70;;;1.40;;
68479;SDS011;55469;48.934;12.050;2022-08-01T21:12:47;1.35;;;1.25;;
68479;SDS011;55469;48.934;12.050;2022-08-01T21:15:29;1.30;;;1.20;;
68479;SDS011;55469;48.934;12.050;2022-08-01T21:18:06;1.98;;;1.40;;
68479;SDS011;55469;48.934;12.050;2022-08-01T21:20:38;1.67;;;1.25;;
68479;SDS011;55469;48.934;12.050;2022-08-01T21:23:09;2.75;;;1.20;;
68479;SDS011;55469;48.934;12.050;2022-08-01T21:26:08;1.88;;;1.40;;
68479;SDS011;55469;48.934;12.050;2022-08-01T21:28:34;1.35;;;1.25;;
68479;SDS011;55469;48.934;12.050;2022-08-01T21:31:01;1.33;;;1.23;;
68479;SDS011;55469;48.934;12.050;2022-08-01T21:33:28;1.17;;;1.17;;
68479;SDS011;55469;48.934;12.050;2022-08-01T21:35:57;2.45;;;1.40;;
68479;SDS011;55469;48.934;12.050;2022-08-01T21:38:24;1.60;;;1.50;;
68479;SDS011;55469;48.934;12.050;2022-08-01T21:40:51;1.60;;;1.30;;
68479;SDS011;55469;48.934;12.050;2022-08-01T21:43:19;1.40;;;1.30;;
68479;SDS011;55469;48.934;12.050;2022-08-01T21:45:47;1.88;;;1.27;;
68479;SDS011;55469;48.934;12.050;2022-08-01T21:48:14;1.40;;;1.30;;
68479;SDS011;55469;48.934;12.050;2022-08-01T21:53:22;1.13;;;1.13;;
68479;SDS011;55469;48.934;12.050;2022-08-01T21:56:05;2.05;;;1.38;;
68479;SDS011;55469;48.934;12.050;2022-08-01T21:58:54;2.40;;;1.30;;
68479;SDS011;55469;48.934;12.050;2022-08-01T22:01:42;1.33;;;1.23;;
68479;SDS011;55469;48.934;12.050;2022-08-01T22:04:22;1.73;;;1.40;;
68479;SDS011;55469;48.934;12.050;2022-08-01T22:07:12;1.50;;;1.33;;
68479;SDS011;55469;48.934;12.050;2022-08-01T22:09:43;2.40;;;1.45;;
68479;SDS011;55469;48.934;12.050;2022-08-01T22:12:13;2.28;;;1.40;;
68479;SDS011;55469;48.934;12.050;2022-08-01T22:14:42;1.40;;;1.30;;
68479;SDS011;55469;48.934;12.050;2022-08-01T22:17:18;2.20;;;1.63;;
68479;SDS011;55469;48.934;12.050;2022-08-01T22:19:49;1.90;;;1.40;;
68479;SDS011;55469;48.934;12.050;2022-08-01T22:22:19;1.48;;;1.38;;
68479;SDS011;55469;48.934;12.050;2022-08-01T22:24:50;1.65;;;1.30;;
68479;SDS011;55469;48.934;12.050;2022-08-01T22:27:17;1.42;;;1.30;;
68479;SDS011;55469;48.934;12.050;2022-08-01T22:32:20;1.50;;;1.40;;
68479;SDS011;55469;48.934;12.050;2022-08-01T22:34:54;2.00;;;1.60;;
68479;SDS011;55469;48.934;12.050;2022-08-01T22:37:23;4.03;;;1.50;;
68479;SDS011;55469;48.934;12.050;2022-08-01T22:39:50;1.48;;;1.38;;
68479;SDS011;55469;48.934;12.050;2022-08-01T22:42:16;1.60;;;1.48;;
68479;SDS011;55469;48.934;12.050;2022-08-01T22:50:45;1.70;;;1.60;;
68479;SDS011;55469;48.934;12.050;2022-08-01T22:53:35;2.13;;;1.60;;
68479;SDS011;55469;48.934;12.050;2022-08-01T22:56:19;2.00;;;1.48;;
68479;SDS011;55469;48.934;12.050;2022-08-01T22:58:47;1.63;;;1.50;;
68479;SDS011;55469;48.934;12.050;2022-08-01T23:01:15;2.53;;;1.60;;
68479;SDS011;55469;48.934;12.050;2022-08-01T23:03:45;2.17;;;1.80;;